createdAt,value
2018-12-24T00:03:30.819Z,0.30
2018-12-24T00:08:35.264Z,0.30
2018-12-24T00:13:39.592Z,0.20
2018-12-24T00:18:43.832Z,0.30
2018-12-24T00:23:49.509Z,0.40
2018-12-24T00:28:54.339Z,0.40
2018-12-24T00:34:01.811Z,0.10
2018-12-24T00:39:07.867Z,0.30
2018-12-24T00:44:12.160Z,0.30
2018-12-24T00:49:16.764Z,0.40
2018-12-24T00:54:21.004Z,0.40
2018-12-24T00:59:25.876Z,0.53
2018-12-24T01:04:30.453Z,0.40
2018-12-24T01:09:34.735Z,0.70
2018-12-24T01:14:39.115Z,0.40
2018-12-24T01:19:43.999Z,0.20
2018-12-24T01:24:48.770Z,0.30
2018-12-24T01:29:53.005Z,0.53
2018-12-24T01:34:57.869Z,0.60
2018-12-24T01:40:02.462Z,0.67
2018-12-24T01:45:07.995Z,0.70
2018-12-24T01:50:12.532Z,0.60
2018-12-24T01:55:17.084Z,0.60
2018-12-24T02:00:21.496Z,0.63
2018-12-24T02:05:27.636Z,0.77
2018-12-24T02:10:31.859Z,0.70
2018-12-24T02:15:36.300Z,0.57
2018-12-24T02:20:40.632Z,0.70
2018-12-24T02:25:45.315Z,0.83
2018-12-24T02:30:50.119Z,0.80
2018-12-24T02:35:54.976Z,0.90
2018-12-24T02:40:59.296Z,0.80
2018-12-24T02:46:03.635Z,0.80
2018-12-24T02:51:07.980Z,0.80
2018-12-24T02:56:12.309Z,0.70
2018-12-24T03:01:16.653Z,0.73
2018-12-24T03:06:20.893Z,0.90
2018-12-24T03:11:25.157Z,0.80
2018-12-24T03:16:29.788Z,1.00
2018-12-24T03:21:34.011Z,1.00
2018-12-24T03:26:38.512Z,1.10
2018-12-24T03:31:42.853Z,1.10
2018-12-24T03:36:47.174Z,0.80
2018-12-24T03:41:51.414Z,1.00
2018-12-24T03:46:55.844Z,1.30
2018-12-24T03:52:00.082Z,1.07
2018-12-24T03:57:04.513Z,1.47
2018-12-24T04:02:08.905Z,1.77
2018-12-24T04:07:13.691Z,1.87
2018-12-24T04:12:18.276Z,2.13
2018-12-24T04:17:22.566Z,2.40
2018-12-24T04:22:27.064Z,2.70
2018-12-24T04:27:41.425Z,2.33
2018-12-24T04:32:37.627Z,2.87
2018-12-24T04:37:41.938Z,2.60
2018-12-24T04:42:46.167Z,2.40
2018-12-24T04:47:50.768Z,2.20
2018-12-24T04:52:54.992Z,2.80
2018-12-24T04:57:59.640Z,3.23
2018-12-24T05:03:04.052Z,3.00
2018-12-24T05:08:08.356Z,2.93
2018-12-24T05:13:12.575Z,3.10
2018-12-24T05:18:16.813Z,3.63
2018-12-24T05:23:21.061Z,3.80
2018-12-24T05:28:25.391Z,3.43
2018-12-24T05:33:29.626Z,4.00
2018-12-24T05:38:33.850Z,4.53
2018-12-24T05:43:38.321Z,4.80
2018-12-24T05:48:42.519Z,5.20
2018-12-24T05:53:46.854Z,5.37
2018-12-24T05:58:51.090Z,4.90
2018-12-24T06:03:55.448Z,5.80
2018-12-24T06:09:00.227Z,5.80
2018-12-24T06:14:04.465Z,5.70
2018-12-24T06:19:08.728Z,5.17
2018-12-24T06:24:13.063Z,6.20
2018-12-24T06:29:17.255Z,5.73
2018-12-24T06:34:21.533Z,5.93
2018-12-24T06:39:25.756Z,5.67
2018-12-24T06:44:30.188Z,4.97
2018-12-24T06:49:34.426Z,9.83
2018-12-24T06:54:38.756Z,5.67
2018-12-24T06:59:43.205Z,5.00
2018-12-24T07:04:47.483Z,5.40
2018-12-24T07:09:51.705Z,5.93
2018-12-24T07:14:55.929Z,5.97
2018-12-24T07:20:00.223Z,6.23
2018-12-24T07:25:04.566Z,6.50
2018-12-24T07:30:09.297Z,6.40
2018-12-24T07:35:13.594Z,7.90
2018-12-24T07:40:17.870Z,9.33
2018-12-24T07:45:22.100Z,9.17
2018-12-24T07:50:26.426Z,7.90
2018-12-24T07:55:30.762Z,8.43
2018-12-24T08:00:35.292Z,7.60
2018-12-24T08:05:39.706Z,6.80
2018-12-24T08:10:44.626Z,9.07
2018-12-24T08:15:48.924Z,7.60
2018-12-24T08:20:53.249Z,7.87
2018-12-24T08:25:57.695Z,7.03
2018-12-24T08:31:02.456Z,7.27
2018-12-24T08:36:06.685Z,8.60
2018-12-24T08:41:11.085Z,8.00
2018-12-24T08:46:15.298Z,7.77
2018-12-24T08:51:19.662Z,7.30
2018-12-24T08:56:23.993Z,7.63
2018-12-24T09:01:28.324Z,7.90
2018-12-24T09:06:33.221Z,7.67
2018-12-24T09:11:37.582Z,6.47
2018-12-24T09:16:41.835Z,5.90
2018-12-24T09:21:46.384Z,6.27
2018-12-24T09:26:52.949Z,5.77
2018-12-24T09:31:58.483Z,3.73
2018-12-24T09:37:03.154Z,4.23
2018-12-24T09:42:07.432Z,3.53
2018-12-24T09:47:11.737Z,3.03
2018-12-24T09:52:16.065Z,3.73
2018-12-24T09:57:20.408Z,3.20
2018-12-24T10:02:31.309Z,2.80
2018-12-24T10:07:40.405Z,3.70
2018-12-24T10:12:44.879Z,3.33
2018-12-24T10:17:49.244Z,3.87
2018-12-24T10:22:53.564Z,5.97
2018-12-24T10:27:58.556Z,4.07
2018-12-24T10:33:02.826Z,4.87
2018-12-24T10:38:07.725Z,2.70
2018-12-24T10:43:12.122Z,3.60
2018-12-24T10:48:17.114Z,3.43
2018-12-24T10:53:21.762Z,3.60
2018-12-24T10:58:26.187Z,2.80
2018-12-24T11:03:30.727Z,3.10
2018-12-24T11:08:35.357Z,3.20
2018-12-24T11:13:39.801Z,3.87
2018-12-24T11:18:44.216Z,3.70
2018-12-24T11:23:48.517Z,3.47
2018-12-24T11:28:52.839Z,3.80
2018-12-24T11:33:57.238Z,2.70
2018-12-24T11:39:02.398Z,2.10
2018-12-24T11:44:06.683Z,1.83
2018-12-24T11:49:11.020Z,1.43
2018-12-24T11:54:15.384Z,1.50
2018-12-24T11:59:20.123Z,1.30
2018-12-24T12:04:24.986Z,1.40
2018-12-24T12:09:29.420Z,1.30
2018-12-24T12:14:33.917Z,1.40
2018-12-24T12:19:38.261Z,1.60
2018-12-24T12:24:42.607Z,1.40
2018-12-24T12:29:47.003Z,1.40
2018-12-24T12:34:51.253Z,1.53
2018-12-24T12:39:55.516Z,1.30
2018-12-24T12:45:00.235Z,1.60
2018-12-24T12:50:04.677Z,1.40
2018-12-24T12:55:09.227Z,1.40
2018-12-24T13:00:13.460Z,1.57
2018-12-24T13:05:17.816Z,1.40
2018-12-24T13:10:22.165Z,1.50
2018-12-24T13:15:26.866Z,1.47
2018-12-24T13:20:31.524Z,1.50
2018-12-24T13:25:35.891Z,1.97
2018-12-24T13:30:40.152Z,1.20
2018-12-24T13:35:44.819Z,1.60
2018-12-24T13:40:49.821Z,1.20
2018-12-24T13:45:55.171Z,1.73
2018-12-24T13:51:00.449Z,1.33
2018-12-24T13:56:04.967Z,1.60
2018-12-24T14:01:09.665Z,1.20
2018-12-24T14:06:14.559Z,1.20
2018-12-24T14:11:19.471Z,1.20
2018-12-24T14:16:23.824Z,1.20
2018-12-24T14:21:28.281Z,0.80
2018-12-24T14:26:32.820Z,1.30
2018-12-24T14:31:37.568Z,1.10
2018-12-24T14:36:42.124Z,1.17
2018-12-24T14:41:46.797Z,1.13
2018-12-24T14:46:51.406Z,1.20
2018-12-24T14:51:55.737Z,1.30
2018-12-24T14:57:00.328Z,1.30
2018-12-24T15:02:04.609Z,1.10
2018-12-24T15:07:09.277Z,1.07
2018-12-24T15:12:13.928Z,1.50
2018-12-24T15:17:18.277Z,1.20
2018-12-24T15:22:22.642Z,1.40
2018-12-24T15:27:27.698Z,1.47
2018-12-24T15:32:32.827Z,1.33
2018-12-24T15:37:37.077Z,1.70
2018-12-24T15:42:41.400Z,3.40
2018-12-24T15:47:46.290Z,1.60
2018-12-24T15:52:50.606Z,1.50
2018-12-24T15:57:54.944Z,1.50
2018-12-24T16:02:59.174Z,2.17
2018-12-24T16:08:03.595Z,1.80
2018-12-24T16:13:07.930Z,1.90
2018-12-24T16:18:12.278Z,1.90
2018-12-24T16:23:16.694Z,2.03
2018-12-24T16:28:21.020Z,1.60
2018-12-24T16:33:25.361Z,1.80
2018-12-24T16:38:29.694Z,1.90
2018-12-24T16:43:34.027Z,1.73
2018-12-24T16:48:38.366Z,1.90
2018-12-24T16:53:42.797Z,1.63
2018-12-24T16:58:47.129Z,2.00
2018-12-24T17:03:51.377Z,2.00
2018-12-24T17:08:55.709Z,2.40
2018-12-24T17:14:00.176Z,2.60
2018-12-24T17:19:04.481Z,5.17
2018-12-24T17:24:08.805Z,7.27
2018-12-24T17:29:13.236Z,28.13
2018-12-24T17:34:17.922Z,7.80
2018-12-24T17:39:22.314Z,9.13
2018-12-24T17:44:26.560Z,8.27
2018-12-24T17:49:30.965Z,14.63
2018-12-24T17:54:35.218Z,9.77
2018-12-24T17:59:39.547Z,7.63
2018-12-24T18:04:43.903Z,10.27
2018-12-24T18:09:49.102Z,7.47
2018-12-24T18:14:53.750Z,9.57
2018-12-24T18:19:58.108Z,7.53
2018-12-24T18:25:02.545Z,6.53
2018-12-24T18:30:07.813Z,6.07
2018-12-24T18:35:12.032Z,5.87
2018-12-24T18:40:16.277Z,5.20
2018-12-24T18:45:20.602Z,6.93
2018-12-24T18:50:24.833Z,6.33
2018-12-24T18:55:29.068Z,7.03
2018-12-24T19:00:33.403Z,8.73
2018-12-24T19:05:37.653Z,10.50
2018-12-24T19:10:42.064Z,8.93
2018-12-24T19:15:46.598Z,8.33
2018-12-24T19:20:51.030Z,6.87
2018-12-24T19:25:55.374Z,8.07
2018-12-24T19:30:59.704Z,15.67
2018-12-24T19:36:04.521Z,11.43
2018-12-24T19:41:09.330Z,11.10
2018-12-24T19:46:13.704Z,9.23
2018-12-24T19:51:17.970Z,6.50
2018-12-24T19:56:22.328Z,7.97
2018-12-24T20:01:26.647Z,6.50
2018-12-24T20:06:30.981Z,5.10
2018-12-24T20:11:35.578Z,5.87
2018-12-24T20:16:40.134Z,5.33
2018-12-24T20:21:44.502Z,5.83
2018-12-24T20:26:48.910Z,5.03
2018-12-24T20:31:54.341Z,4.97
2018-12-24T20:36:59.051Z,5.43
2018-12-24T20:42:03.351Z,7.17
2018-12-24T20:47:07.879Z,8.00
2018-12-24T20:52:13.655Z,5.90
2018-12-24T20:57:18.188Z,6.67
2018-12-24T21:02:23.004Z,11.20
2018-12-24T21:07:27.553Z,5.40
2018-12-24T21:12:32.018Z,6.53
2018-12-24T21:17:36.390Z,6.00
2018-12-24T21:22:40.879Z,24.37
2018-12-24T21:27:45.212Z,21.87
2018-12-24T21:32:49.567Z,8.37
2018-12-24T21:37:54.543Z,11.80
2018-12-24T21:42:59.050Z,6.47
2018-12-24T21:48:03.283Z,6.57
2018-12-24T21:53:07.616Z,4.10
2018-12-24T21:58:12.254Z,5.07
2018-12-24T22:03:16.925Z,6.20
2018-12-24T22:08:21.418Z,8.03
2018-12-24T22:13:25.757Z,10.33
2018-12-24T22:18:32.275Z,7.50
2018-12-24T22:23:36.487Z,20.00
2018-12-24T22:28:40.809Z,8.47
2018-12-24T22:33:49.634Z,16.80
2018-12-24T22:38:55.210Z,11.10
2018-12-24T22:43:59.991Z,5.87
2018-12-24T22:49:08.279Z,12.33
2018-12-24T22:54:13.490Z,7.87
2018-12-24T22:59:19.546Z,6.90
2018-12-24T23:04:24.601Z,6.80
2018-12-24T23:09:29.374Z,6.30
2018-12-24T23:14:33.724Z,4.77
2018-12-24T23:19:38.116Z,9.33
2018-12-24T23:24:42.607Z,3.80
2018-12-24T23:29:47.141Z,5.43
2018-12-24T23:34:51.690Z,7.87
2018-12-24T23:39:58.261Z,8.20
2018-12-24T23:45:02.960Z,7.60
2018-12-24T23:50:07.245Z,7.70
2018-12-24T23:55:11.584Z,9.00
